createdAt,value
2023-04-16T00:01:35.200Z,4.90
2023-04-16T00:04:02.016Z,4.93
2023-04-16T00:06:28.852Z,4.88
2023-04-16T00:08:55.481Z,4.70
2023-04-16T00:11:22.308Z,4.28
2023-04-16T00:13:49.183Z,4.08
2023-04-16T00:16:16.150Z,4.02
2023-04-16T00:18:42.798Z,4.38
2023-04-16T00:21:09.466Z,4.58
2023-04-16T00:23:36.112Z,4.70
2023-04-16T00:26:02.772Z,4.86
2023-04-16T00:28:29.478Z,4.88
2023-04-16T00:30:56.138Z,4.81
2023-04-16T00:33:23.439Z,4.93
2023-04-16T00:35:50.736Z,4.90
2023-04-16T00:38:17.398Z,4.87
2023-04-16T00:40:44.021Z,4.82
2023-04-16T00:43:10.856Z,4.49
2023-04-16T00:45:37.498Z,4.39
2023-04-16T00:48:04.552Z,4.30
2023-04-16T00:50:31.401Z,3.60
2023-04-16T00:52:58.266Z,3.32
2023-04-16T00:55:24.948Z,3.01
2023-04-16T00:57:51.555Z,3.39
2023-04-16T01:00:18.274Z,3.94
2023-04-16T01:02:45.007Z,4.29
2023-04-16T01:05:11.766Z,4.28
2023-04-16T01:07:38.493Z,4.10
2023-04-16T01:10:05.468Z,4.11
2023-04-16T01:12:32.593Z,4.33
2023-04-16T01:14:59.268Z,4.41
2023-04-16T01:17:25.957Z,4.53
2023-04-16T01:19:52.661Z,4.01
2023-04-16T01:22:19.399Z,4.25
2023-04-16T01:24:46.209Z,4.56
2023-04-16T01:27:12.884Z,4.55
2023-04-16T01:29:39.621Z,4.61
2023-04-16T01:32:06.400Z,4.76
2023-04-16T01:34:33.072Z,4.68
2023-04-16T01:36:59.704Z,4.57
2023-04-16T01:39:26.390Z,4.47
2023-04-16T01:41:53.144Z,4.54
2023-04-16T01:44:19.998Z,4.77
2023-04-16T01:46:46.675Z,4.70
2023-04-16T01:49:13.773Z,4.69
2023-04-16T01:51:40.566Z,4.62
2023-04-16T01:54:07.239Z,4.71
2023-04-16T01:56:33.877Z,4.68
2023-04-16T01:59:00.534Z,4.45
2023-04-16T02:01:27.294Z,4.41
2023-04-16T02:03:54.091Z,4.48
2023-04-16T02:06:20.917Z,4.52
2023-04-16T02:08:47.753Z,4.30
2023-04-16T02:11:14.387Z,4.10
2023-04-16T02:13:41.040Z,3.84
2023-04-16T02:16:07.743Z,3.72
2023-04-16T02:18:34.342Z,3.77
2023-04-16T02:21:01.148Z,3.86
2023-04-16T02:23:27.800Z,4.00
2023-04-16T02:25:54.668Z,3.79
2023-04-16T02:28:21.346Z,3.91
2023-04-16T02:30:48.002Z,3.96
2023-04-16T02:33:14.711Z,3.92
2023-04-16T02:35:41.425Z,3.93
2023-04-16T02:38:08.486Z,3.80
2023-04-16T02:40:35.125Z,3.92
2023-04-16T02:43:02.051Z,3.77
2023-04-16T02:45:28.814Z,3.60
2023-04-16T02:47:55.670Z,3.70
2023-04-16T02:50:22.356Z,3.97
2023-04-16T02:52:49.023Z,4.15
2023-04-16T02:55:16.155Z,4.20
2023-04-16T02:57:42.897Z,4.24
2023-04-16T03:00:10.162Z,4.26
2023-04-16T03:02:36.917Z,4.05
2023-04-16T03:05:04.293Z,3.97
2023-04-16T03:07:30.940Z,4.21
2023-04-16T03:09:57.588Z,4.23
2023-04-16T03:12:24.401Z,4.32
2023-04-16T03:14:52.533Z,4.26
2023-04-16T03:17:19.275Z,4.02
2023-04-16T03:19:46.207Z,3.83
2023-04-16T03:22:12.993Z,3.93
2023-04-16T03:24:39.629Z,3.45
2023-04-16T03:27:06.276Z,3.12
2023-04-16T03:29:32.878Z,3.57
2023-04-16T03:31:59.631Z,3.60
2023-04-16T03:34:26.698Z,3.44
2023-04-16T03:36:53.324Z,3.58
2023-04-16T03:39:19.929Z,3.24
2023-04-16T03:41:46.936Z,3.14
2023-04-16T03:44:13.669Z,3.16
2023-04-16T03:46:40.582Z,3.32
2023-04-16T03:49:07.912Z,3.54
2023-04-16T03:51:34.919Z,3.59
2023-04-16T03:54:01.542Z,3.61
2023-04-16T03:56:28.218Z,3.47
2023-04-16T03:58:54.854Z,3.76
2023-04-16T04:01:21.549Z,3.47
2023-04-16T04:03:48.490Z,3.97
2023-04-16T04:06:15.323Z,4.00
2023-04-16T04:08:41.938Z,4.08
2023-04-16T04:11:08.654Z,4.22
2023-04-16T04:13:35.357Z,4.22
2023-04-16T04:16:02.097Z,4.17
2023-04-16T04:18:28.845Z,4.20
2023-04-16T04:20:55.567Z,3.54
2023-04-16T04:23:22.157Z,3.58
2023-04-16T04:25:48.833Z,3.74
2023-04-16T04:28:15.618Z,4.05
2023-04-16T04:30:42.296Z,4.35
2023-04-16T04:33:09.019Z,4.48
2023-04-16T04:35:35.740Z,3.93
2023-04-16T04:38:03.092Z,4.34
2023-04-16T04:40:29.808Z,4.36
2023-04-16T04:42:56.810Z,4.65
2023-04-16T04:45:25.616Z,4.81
2023-04-16T04:47:55.360Z,4.71
2023-04-16T04:50:22.155Z,4.73
2023-04-16T04:52:48.752Z,4.88
2023-04-16T04:55:16.179Z,4.88
2023-04-16T04:57:42.909Z,4.05
2023-04-16T05:00:09.947Z,4.35
2023-04-16T05:02:36.650Z,4.61
2023-04-16T05:05:04.292Z,4.98
2023-04-16T05:07:31.634Z,4.67
2023-04-16T05:09:58.314Z,4.35
2023-04-16T05:12:25.060Z,4.24
2023-04-16T05:14:51.782Z,4.67
2023-04-16T05:17:18.480Z,5.11
2023-04-16T05:19:45.332Z,5.16
2023-04-16T05:22:12.627Z,4.78
2023-04-16T05:24:39.229Z,5.12
2023-04-16T05:27:06.609Z,5.39
2023-04-16T05:29:33.274Z,5.65
2023-04-16T05:31:59.919Z,5.87
2023-04-16T05:34:26.593Z,5.90
2023-04-16T05:36:53.224Z,6.05
2023-04-16T05:39:20.317Z,6.12
2023-04-16T05:41:47.082Z,6.46
2023-04-16T05:44:15.281Z,6.57
2023-04-16T05:46:41.914Z,6.37
2023-04-16T05:49:08.815Z,6.22
2023-04-16T05:51:35.925Z,6.30
2023-04-16T05:54:02.605Z,6.49
2023-04-16T05:56:29.258Z,6.54
2023-04-16T05:58:55.842Z,6.84
2023-04-16T06:01:22.611Z,6.18
2023-04-16T06:03:49.449Z,6.32
2023-04-16T06:06:16.233Z,6.28
2023-04-16T06:08:42.841Z,6.46
2023-04-16T06:11:09.461Z,6.39
2023-04-16T06:13:37.045Z,6.48
2023-04-16T06:16:03.855Z,6.71
2023-04-16T06:18:30.713Z,6.99
2023-04-16T06:20:58.950Z,7.36
2023-04-16T06:23:25.741Z,7.51
2023-04-16T06:25:52.460Z,7.59
2023-04-16T06:28:19.101Z,7.85
2023-04-16T06:30:46.771Z,7.93
2023-04-16T06:33:13.402Z,7.82
2023-04-16T06:35:40.043Z,8.11
2023-04-16T06:38:06.676Z,7.98
2023-04-16T06:40:33.315Z,8.07
2023-04-16T06:42:59.879Z,7.94
2023-04-16T06:45:26.690Z,8.19
2023-04-16T06:47:53.390Z,8.56
2023-04-16T06:50:20.175Z,8.75
2023-04-16T06:52:46.772Z,8.90
2023-04-16T06:55:13.399Z,8.81
2023-04-16T06:57:40.911Z,9.05
2023-04-16T07:00:08.271Z,9.01
2023-04-16T07:02:35.415Z,9.35
2023-04-16T07:05:02.259Z,9.61
2023-04-16T07:07:29.004Z,9.69
2023-04-16T07:09:55.718Z,9.72
2023-04-16T07:12:22.914Z,9.81
2023-04-16T07:14:49.706Z,10.18
2023-04-16T07:17:16.408Z,10.62
2023-04-16T07:19:43.123Z,10.65
2023-04-16T07:22:09.857Z,10.46
2023-04-16T07:24:36.617Z,10.53
2023-04-16T07:27:03.314Z,10.33
2023-04-16T07:29:30.063Z,10.36
2023-04-16T07:31:57.502Z,10.58
2023-04-16T07:34:24.196Z,10.59
2023-04-16T07:36:50.864Z,10.73
2023-04-16T07:39:17.528Z,11.10
2023-04-16T07:41:44.247Z,11.26
2023-04-16T07:44:10.882Z,11.61
2023-04-16T07:46:46.445Z,11.79
2023-04-16T07:49:13.936Z,11.77
2023-04-16T07:51:40.704Z,11.71
2023-04-16T07:54:07.490Z,11.68
2023-04-16T07:56:34.186Z,11.39
2023-04-16T07:59:08.030Z,11.44
2023-04-16T08:01:41.535Z,12.13
2023-04-16T08:04:08.457Z,12.93
2023-04-16T08:06:35.246Z,13.03
2023-04-16T08:09:01.911Z,13.54
2023-04-16T08:11:28.610Z,13.47
2023-04-16T08:13:55.456Z,13.01
2023-04-16T08:16:22.263Z,13.10
2023-04-16T08:18:48.916Z,12.82
2023-04-16T08:21:15.749Z,13.00
2023-04-16T08:23:42.468Z,13.68
2023-04-16T08:26:09.098Z,14.42
2023-04-16T08:28:35.900Z,14.05
2023-04-16T08:31:02.572Z,13.77
2023-04-16T08:33:29.289Z,14.44
2023-04-16T08:35:55.962Z,14.76
2023-04-16T08:38:22.635Z,15.26
2023-04-16T08:40:49.488Z,15.21
2023-04-16T08:43:16.234Z,15.17
2023-04-16T08:45:43.246Z,14.89
2023-04-16T08:48:11.486Z,15.56
2023-04-16T08:50:38.096Z,15.60
2023-04-16T08:53:08.433Z,15.23
2023-04-16T08:55:41.372Z,14.78
2023-04-16T08:58:24.289Z,15.25
2023-04-16T09:00:51.137Z,15.36
2023-04-16T09:03:20.129Z,15.74
2023-04-16T09:05:47.010Z,15.94
2023-04-16T09:08:13.694Z,16.00
2023-04-16T09:10:40.451Z,16.10
2023-04-16T09:13:09.548Z,16.11
2023-04-16T09:15:36.288Z,16.56
2023-04-16T09:18:03.047Z,16.38
2023-04-16T09:20:29.758Z,16.37
2023-04-16T09:22:57.125Z,16.60
2023-04-16T09:25:23.807Z,17.20
2023-04-16T09:27:51.306Z,16.96
2023-04-16T09:30:24.590Z,17.01
2023-04-16T09:32:52.208Z,17.40
2023-04-16T09:35:19.559Z,17.55
2023-04-16T09:37:55.895Z,17.30
2023-04-16T09:40:27.371Z,17.72
2023-04-16T09:42:57.321Z,17.35
2023-04-16T09:45:24.512Z,17.74
2023-04-16T09:47:51.472Z,17.35
2023-04-16T09:50:19.222Z,17.48
2023-04-16T09:52:51.784Z,17.41
2023-04-16T09:55:32.221Z,17.92
2023-04-16T09:58:00.183Z,18.29
2023-04-16T10:00:26.832Z,18.13
2023-04-16T10:03:04.128Z,18.27
2023-04-16T10:05:31.021Z,17.96
2023-04-16T10:08:01.278Z,18.01
2023-04-16T10:10:28.278Z,17.89
2023-04-16T10:12:55.469Z,17.60
2023-04-16T10:15:22.344Z,17.62
2023-04-16T10:17:48.990Z,17.60
2023-04-16T10:20:17.184Z,17.57
2023-04-16T10:22:43.943Z,17.21
2023-04-16T10:25:10.844Z,17.46
2023-04-16T10:27:37.729Z,17.59
2023-04-16T10:30:04.844Z,18.11
2023-04-16T10:32:31.608Z,18.06
2023-04-16T10:34:58.235Z,17.93
2023-04-16T10:37:31.515Z,17.95
2023-04-16T10:39:59.800Z,18.14
2023-04-16T10:42:27.567Z,17.96
2023-04-16T10:44:54.130Z,17.59
2023-04-16T10:47:21.034Z,17.98
2023-04-16T10:49:48.219Z,17.79
2023-04-16T10:52:18.646Z,17.82
2023-04-16T10:54:45.519Z,17.93
2023-04-16T10:57:16.563Z,17.77
2023-04-16T10:59:43.866Z,17.86
2023-04-16T11:02:15.138Z,17.77
2023-04-16T11:04:46.009Z,17.83
2023-04-16T11:07:16.428Z,17.74
2023-04-16T11:10:05.782Z,17.91
2023-04-16T11:12:33.862Z,18.51
2023-04-16T11:15:04.848Z,18.64
2023-04-16T11:17:47.905Z,18.83
2023-04-16T11:20:24.284Z,18.69
2023-04-16T11:22:51.879Z,18.55
2023-04-16T11:25:25.485Z,18.28
2023-04-16T11:27:52.617Z,17.89
2023-04-16T11:30:27.691Z,17.65
2023-04-16T11:32:54.321Z,17.75
2023-04-16T11:35:21.152Z,17.81
2023-04-16T11:37:50.961Z,17.72
2023-04-16T11:40:17.738Z,17.15
2023-04-16T11:42:44.547Z,17.08
2023-04-16T11:45:12.109Z,16.89
2023-04-16T11:47:45.929Z,16.64
2023-04-16T11:50:27.252Z,16.90
2023-04-16T11:52:55.819Z,16.97
2023-04-16T11:55:22.649Z,17.20
2023-04-16T11:57:49.615Z,16.99
2023-04-16T12:00:19.294Z,17.06
2023-04-16T12:02:52.558Z,17.27
2023-04-16T12:05:34.014Z,17.60
2023-04-16T12:08:08.015Z,17.74
2023-04-16T12:10:38.689Z,17.46
2023-04-16T12:13:15.682Z,17.32
2023-04-16T12:15:46.729Z,17.92
2023-04-16T12:18:14.205Z,17.99
2023-04-16T12:20:44.017Z,18.44
2023-04-16T12:23:11.569Z,18.56
2023-04-16T12:25:38.321Z,18.57
2023-04-16T12:28:05.313Z,18.50
2023-04-16T12:30:32.071Z,18.42
2023-04-16T12:33:17.758Z,18.31
2023-04-16T12:35:45.050Z,18.54
2023-04-16T12:38:12.063Z,18.63
2023-04-16T12:40:38.778Z,18.65
2023-04-16T12:43:05.590Z,18.22
2023-04-16T12:45:32.390Z,17.81
2023-04-16T12:47:59.282Z,17.82
2023-04-16T12:50:26.085Z,17.92
2023-04-16T12:52:52.675Z,18.19
2023-04-16T12:55:19.390Z,17.58
2023-04-16T12:57:48.806Z,17.80
2023-04-16T13:00:16.371Z,17.96
2023-04-16T13:02:43.139Z,17.87
2023-04-16T13:05:10.194Z,17.70
2023-04-16T13:07:36.862Z,17.61
2023-04-16T13:10:03.665Z,17.58
2023-04-16T13:12:30.350Z,17.64
2023-04-16T13:14:56.933Z,17.53
2023-04-16T13:17:23.597Z,17.64
2023-04-16T13:19:50.458Z,17.61
2023-04-16T13:22:17.168Z,17.57
2023-04-16T13:24:43.771Z,17.96
2023-04-16T13:27:11.384Z,17.80
2023-04-16T13:29:38.105Z,17.64
2023-04-16T13:32:05.040Z,17.40
2023-04-16T13:34:31.801Z,17.22
2023-04-16T13:36:58.409Z,17.51
2023-04-16T13:39:25.344Z,17.58
2023-04-16T13:41:52.037Z,17.89
2023-04-16T13:44:18.715Z,18.14
2023-04-16T13:46:47.850Z,17.85
2023-04-16T13:49:14.873Z,17.78
2023-04-16T13:51:43.704Z,17.51
2023-04-16T13:54:10.448Z,17.38
2023-04-16T13:56:37.161Z,17.22
2023-04-16T13:59:03.773Z,17.36
2023-04-16T14:01:30.397Z,17.07
2023-04-16T14:03:57.116Z,17.26
2023-04-16T14:06:23.911Z,17.42
2023-04-16T14:08:50.729Z,17.07
2023-04-16T14:11:17.390Z,17.20
2023-04-16T14:13:44.088Z,17.05
2023-04-16T14:16:10.958Z,16.99
2023-04-16T14:18:42.287Z,16.97
2023-04-16T14:21:09.264Z,16.76
2023-04-16T14:23:36.027Z,16.57
2023-04-16T14:26:02.837Z,16.36
2023-04-16T14:28:29.486Z,16.21
2023-04-16T14:30:56.078Z,16.23
2023-04-16T14:33:22.786Z,16.31
2023-04-16T14:35:50.487Z,15.81
2023-04-16T14:38:17.109Z,16.02
2023-04-16T14:40:43.699Z,16.28
2023-04-16T14:43:10.504Z,16.27
2023-04-16T14:45:38.349Z,16.33
2023-04-16T14:48:06.309Z,16.25
2023-04-16T14:50:37.946Z,16.00
2023-04-16T14:53:07.505Z,15.91
2023-04-16T14:55:34.117Z,15.89
2023-04-16T14:58:00.823Z,15.90
2023-04-16T15:00:27.699Z,16.08
2023-04-16T15:02:57.896Z,16.23
2023-04-16T15:05:24.792Z,16.35
2023-04-16T15:07:51.499Z,16.38
2023-04-16T15:10:18.302Z,16.65
2023-04-16T15:12:44.978Z,16.57
2023-04-16T15:15:11.893Z,16.49
2023-04-16T15:17:38.650Z,16.35
2023-04-16T15:20:08.159Z,16.35
2023-04-16T15:22:34.933Z,16.36
2023-04-16T15:25:02.784Z,16.09
2023-04-16T15:27:29.545Z,15.60
2023-04-16T15:29:56.728Z,14.63
2023-04-16T15:32:23.654Z,14.10
2023-04-16T15:34:50.385Z,13.92
2023-04-16T15:37:17.060Z,13.69
2023-04-16T15:39:44.522Z,13.65
2023-04-16T15:42:11.339Z,13.50
2023-04-16T15:44:38.065Z,13.51
2023-04-16T15:47:06.364Z,13.47
2023-04-16T15:49:33.116Z,13.53
2023-04-16T15:52:00.183Z,13.57
2023-04-16T15:54:27.179Z,13.68
2023-04-16T15:56:53.775Z,13.90
2023-04-16T15:59:20.661Z,13.91
2023-04-16T16:01:47.340Z,13.92
2023-04-16T16:04:14.311Z,14.25
2023-04-16T16:06:41.910Z,14.55
2023-04-16T16:09:09.084Z,14.15
2023-04-16T16:11:37.132Z,14.19
2023-04-16T16:14:03.918Z,13.96
2023-04-16T16:16:30.905Z,14.05
2023-04-16T16:18:57.600Z,14.07
2023-04-16T16:21:24.340Z,14.02
2023-04-16T16:23:51.177Z,13.94
2023-04-16T16:26:18.326Z,13.98
2023-04-16T16:28:44.990Z,13.96
2023-04-16T16:31:12.525Z,14.07
2023-04-16T16:33:40.452Z,14.09
2023-04-16T16:36:10.601Z,13.99
2023-04-16T16:38:37.698Z,14.11
2023-04-16T16:41:04.305Z,14.02
2023-04-16T16:43:31.085Z,13.98
2023-04-16T16:45:57.735Z,13.99
2023-04-16T16:48:24.474Z,13.97
2023-04-16T16:50:51.035Z,13.88
2023-04-16T16:53:17.757Z,14.00
2023-04-16T16:55:44.380Z,13.91
2023-04-16T16:58:11.292Z,13.66
2023-04-16T17:00:38.106Z,13.78
2023-04-16T17:03:04.956Z,13.50
2023-04-16T17:05:31.833Z,12.91
2023-04-16T17:07:58.625Z,13.19
2023-04-16T17:10:25.398Z,13.16
2023-04-16T17:12:52.037Z,13.14
2023-04-16T17:15:21.462Z,13.18
2023-04-16T17:17:48.705Z,13.25
2023-04-16T17:20:15.709Z,13.22
2023-04-16T17:22:42.567Z,12.98
2023-04-16T17:25:09.554Z,12.73
2023-04-16T17:27:36.273Z,12.61
2023-04-16T17:30:03.551Z,12.39
2023-04-16T17:32:32.397Z,12.30
2023-04-16T17:34:59.834Z,12.11
2023-04-16T17:37:27.074Z,11.92
2023-04-16T17:39:53.786Z,12.14
2023-04-16T17:42:20.566Z,12.14
2023-04-16T17:44:47.325Z,11.84
2023-04-16T17:47:14.074Z,11.84
2023-04-16T17:49:40.871Z,11.90
2023-04-16T17:52:07.546Z,12.03
2023-04-16T17:54:36.263Z,12.00
2023-04-16T17:57:03.027Z,11.91
2023-04-16T17:59:29.761Z,11.98
2023-04-16T18:01:56.848Z,11.88
2023-04-16T18:04:23.700Z,11.89
2023-04-16T18:06:50.534Z,11.84
2023-04-16T18:09:17.978Z,11.91
2023-04-16T18:11:44.721Z,11.80
2023-04-16T18:14:13.849Z,11.81
2023-04-16T18:16:41.891Z,11.76
2023-04-16T18:19:08.531Z,11.74
2023-04-16T18:21:35.718Z,11.69
2023-04-16T18:24:03.583Z,11.60
2023-04-16T18:26:30.458Z,11.32
2023-04-16T18:28:57.728Z,11.19
2023-04-16T18:31:24.553Z,11.18
2023-04-16T18:33:56.555Z,11.04
2023-04-16T18:36:24.492Z,11.09
2023-04-16T18:39:00.870Z,10.94
2023-04-16T18:41:28.123Z,10.79
2023-04-16T18:43:54.837Z,10.81
2023-04-16T18:46:21.681Z,10.86
2023-04-16T18:48:48.335Z,10.74
2023-04-16T18:51:16.321Z,10.54
2023-04-16T18:53:44.530Z,10.46
2023-04-16T18:56:11.718Z,10.48
2023-04-16T18:58:38.482Z,10.52
2023-04-16T19:01:07.818Z,10.54
2023-04-16T19:03:34.764Z,10.51
2023-04-16T19:06:01.634Z,10.62
2023-04-16T19:08:28.365Z,10.69
2023-04-16T19:10:54.994Z,10.64
2023-04-16T19:13:21.645Z,10.45
2023-04-16T19:15:48.362Z,10.34
2023-04-16T19:18:15.162Z,10.31
2023-04-16T19:20:41.764Z,10.30
2023-04-16T19:23:09.243Z,10.44
2023-04-16T19:25:38.903Z,10.35
2023-04-16T19:28:05.709Z,10.30
2023-04-16T19:30:32.382Z,10.40
2023-04-16T19:32:59.056Z,10.52
2023-04-16T19:35:25.832Z,10.14
2023-04-16T19:37:52.709Z,10.17
2023-04-16T19:40:19.387Z,10.11
2023-04-16T19:42:45.950Z,10.17
2023-04-16T19:45:12.683Z,10.13
2023-04-16T19:47:39.442Z,10.07
2023-04-16T19:50:06.654Z,10.14
2023-04-16T19:52:38.980Z,10.16
2023-04-16T19:55:06.746Z,10.07
2023-04-16T19:57:33.411Z,10.35
2023-04-16T20:02:27.011Z,10.38
2023-04-16T20:04:53.679Z,10.40
2023-04-16T20:07:20.577Z,9.99
2023-04-16T20:09:47.386Z,9.89
2023-04-16T20:12:14.443Z,9.72
2023-04-16T20:14:42.003Z,9.66
2023-04-16T20:17:10.143Z,9.43
2023-04-16T20:19:40.761Z,9.47
2023-04-16T20:22:07.424Z,9.23
2023-04-16T20:24:34.326Z,9.24
2023-04-16T20:27:01.803Z,9.26
2023-04-16T20:29:28.529Z,9.28
2023-04-16T20:31:55.348Z,9.32
2023-04-16T20:34:22.025Z,9.36
2023-04-16T20:36:48.668Z,9.20
2023-04-16T20:39:20.268Z,9.22
2023-04-16T20:41:56.555Z,9.10
2023-04-16T20:44:26.430Z,9.24
2023-04-16T20:46:54.746Z,9.29
2023-04-16T20:49:21.606Z,9.33
2023-04-16T20:51:48.378Z,9.33
2023-04-16T20:54:14.979Z,9.29
2023-04-16T20:56:41.640Z,9.16
2023-04-16T20:59:08.264Z,9.27
2023-04-16T21:01:35.524Z,9.26
2023-04-16T21:04:02.598Z,9.52
2023-04-16T21:06:32.915Z,9.41
2023-04-16T21:08:59.464Z,9.47
2023-04-16T21:11:26.259Z,9.53
2023-04-16T21:13:52.922Z,9.53
2023-04-16T21:16:19.669Z,9.63
2023-04-16T21:18:46.367Z,9.70
2023-04-16T21:21:13.063Z,9.74
2023-04-16T21:23:39.839Z,9.63
2023-04-16T21:26:06.534Z,9.54
2023-04-16T21:28:33.308Z,9.60
2023-04-16T21:30:59.999Z,9.54
2023-04-16T21:33:26.677Z,9.55
2023-04-16T21:35:53.583Z,9.63
2023-04-16T21:38:20.585Z,9.54
2023-04-16T21:40:53.790Z,9.64
2023-04-16T21:43:20.594Z,9.55
2023-04-16T21:45:47.273Z,9.57
2023-04-16T21:48:13.977Z,9.45
2023-04-16T21:50:40.614Z,9.34
2023-04-16T21:53:07.267Z,9.49
2023-04-16T21:55:34.832Z,9.51
2023-04-16T21:58:02.839Z,9.64
2023-04-16T22:00:29.791Z,9.84
2023-04-16T22:03:00.144Z,9.84
2023-04-16T22:05:26.979Z,9.86
2023-04-16T22:07:53.725Z,9.88
2023-04-16T22:10:20.407Z,9.76
2023-04-16T22:12:47.002Z,9.90
2023-04-16T22:15:13.876Z,9.73
2023-04-16T22:17:40.710Z,9.71
2023-04-16T22:20:13.128Z,9.86
2023-04-16T22:22:42.942Z,9.95
2023-04-16T22:25:10.102Z,10.11
2023-04-16T22:27:36.795Z,10.12
2023-04-16T22:30:04.168Z,10.00
2023-04-16T22:32:31.063Z,10.17
2023-04-16T22:34:57.775Z,10.32
2023-04-16T22:37:24.682Z,10.19
2023-04-16T22:39:51.684Z,10.41
2023-04-16T22:42:18.344Z,10.42
2023-04-16T22:44:44.933Z,10.31
2023-04-16T22:47:11.594Z,10.30
2023-04-16T22:49:38.225Z,10.37
2023-04-16T22:52:05.081Z,10.35
2023-04-16T22:54:32.139Z,10.42
2023-04-16T22:56:58.885Z,10.14
2023-04-16T22:59:25.892Z,10.24
2023-04-16T23:01:52.975Z,10.34
2023-04-16T23:04:20.070Z,10.48
2023-04-16T23:06:46.821Z,10.62
2023-04-16T23:09:13.846Z,10.62
2023-04-16T23:11:40.928Z,10.49
2023-04-16T23:14:08.343Z,10.57
2023-04-16T23:16:35.097Z,10.52
2023-04-16T23:19:01.691Z,10.63
2023-04-16T23:21:28.331Z,10.67
2023-04-16T23:23:56.605Z,10.51
2023-04-16T23:26:23.447Z,10.50
2023-04-16T23:28:50.081Z,10.55
2023-04-16T23:31:16.894Z,10.52
2023-04-16T23:33:43.544Z,10.58
2023-04-16T23:36:10.558Z,10.56
2023-04-16T23:38:37.194Z,10.71
2023-04-16T23:41:03.828Z,10.64
2023-04-16T23:43:30.489Z,10.70
2023-04-16T23:45:57.196Z,10.62
2023-04-16T23:48:23.855Z,10.66
2023-04-16T23:50:50.505Z,10.51
2023-04-16T23:53:17.335Z,10.55
2023-04-16T23:55:44.004Z,10.50
2023-04-16T23:58:10.806Z,10.51
